sensor_id;sensor_type;location;lat;lon;timestamp;P1;durP1;ratioP1;P2;durP2;ratioP2
9208;SDS011;4639;48.862;9.188;2022-08-01T00:00:06;2.25;;;1.90;;
9208;SDS011;4639;48.862;9.188;2022-08-01T00:02:32;4.20;;;2.15;;
9208;SDS011;4639;48.862;9.188;2022-08-01T00:04:58;3.83;;;2.08;;
9208;SDS011;4639;48.862;9.188;2022-08-01T00:07:25;3.95;;;2.35;;
9208;SDS011;4639;48.862;9.188;2022-08-01T00:09:51;6.10;;;2.40;;
9208;SDS011;4639;48.862;9.188;2022-08-01T00:12:16;3.05;;;2.20;;
9208;SDS011;4639;48.862;9.188;2022-08-01T00:14:42;2.47;;;2.28;;
9208;SDS011;4639;48.862;9.188;2022-08-01T00:17:07;4.20;;;2.47;;
9208;SDS011;4639;48.862;9.188;2022-08-01T00:19:33;3.20;;;2.22;;
9208;SDS011;4639;48.862;9.188;2022-08-01T00:21:59;3.15;;;1.85;;
9208;SDS011;4639;48.862;9.188;2022-08-01T00:24:25;4.40;;;1.98;;
9208;SDS011;4639;48.862;9.188;2022-08-01T00:26:50;2.72;;;2.00;;
9208;SDS011;4639;48.862;9.188;2022-08-01T00:29:16;2.30;;;2.03;;
9208;SDS011;4639;48.862;9.188;2022-08-01T00:31:42;2.10;;;1.88;;
9208;SDS011;4639;48.862;9.188;2022-08-01T00:34:07;2.13;;;1.92;;
9208;SDS011;4639;48.862;9.188;2022-08-01T00:36:33;3.92;;;1.95;;
9208;SDS011;4639;48.862;9.188;2022-08-01T00:38:59;2.10;;;2.00;;
9208;SDS011;4639;48.862;9.188;2022-08-01T00:41:24;5.55;;;2.28;;
9208;SDS011;4639;48.862;9.188;2022-08-01T00:43:50;2.30;;;2.10;;
9208;SDS011;4639;48.862;9.188;2022-08-01T00:46:15;2.13;;;1.70;;
9208;SDS011;4639;48.862;9.188;2022-08-01T00:48:41;2.42;;;2.20;;
9208;SDS011;4639;48.862;9.188;2022-08-01T00:51:07;4.05;;;2.25;;
9208;SDS011;4639;48.862;9.188;2022-08-01T00:53:33;2.22;;;2.03;;
9208;SDS011;4639;48.862;9.188;2022-08-01T00:55:59;3.30;;;2.15;;
9208;SDS011;4639;48.862;9.188;2022-08-01T00:58:25;2.30;;;2.10;;
9208;SDS011;4639;48.862;9.188;2022-08-01T01:00:53;3.75;;;1.95;;
9208;SDS011;4639;48.862;9.188;2022-08-01T01:03:19;2.95;;;2.00;;
9208;SDS011;4639;48.862;9.188;2022-08-01T01:05:48;3.03;;;2.15;;
9208;SDS011;4639;48.862;9.188;2022-08-01T01:08:24;5.07;;;2.20;;
9208;SDS011;4639;48.862;9.188;2022-08-01T01:14:07;2.63;;;2.00;;
9208;SDS011;4639;48.862;9.188;2022-08-01T01:16:37;2.55;;;2.35;;
9208;SDS011;4639;48.862;9.188;2022-08-01T01:19:05;3.35;;;2.00;;
9208;SDS011;4639;48.862;9.188;2022-08-01T01:29:52;2.80;;;2.33;;
9208;SDS011;4639;48.862;9.188;2022-08-01T01:35:05;4.72;;;2.30;;
9208;SDS011;4639;48.862;9.188;2022-08-01T01:37:34;3.22;;;2.30;;
9208;SDS011;4639;48.862;9.188;2022-08-01T01:40:00;3.28;;;2.30;;
9208;SDS011;4639;48.862;9.188;2022-08-01T01:42:27;2.85;;;2.10;;
9208;SDS011;4639;48.862;9.188;2022-08-01T01:44:55;3.17;;;1.83;;
9208;SDS011;4639;48.862;9.188;2022-08-01T01:47:21;2.92;;;2.03;;
9208;SDS011;4639;48.862;9.188;2022-08-01T01:49:49;5.57;;;2.28;;
9208;SDS011;4639;48.862;9.188;2022-08-01T01:52:17;5.15;;;2.40;;
9208;SDS011;4639;48.862;9.188;2022-08-01T01:54:45;3.50;;;2.30;;
9208;SDS011;4639;48.862;9.188;2022-08-01T01:57:13;5.75;;;2.30;;
9208;SDS011;4639;48.862;9.188;2022-08-01T01:59:41;2.40;;;2.20;;
9208;SDS011;4639;48.862;9.188;2022-08-01T02:02:09;2.70;;;2.30;;
9208;SDS011;4639;48.862;9.188;2022-08-01T02:04:37;4.15;;;2.45;;
9208;SDS011;4639;48.862;9.188;2022-08-01T02:07:05;2.83;;;2.05;;
9208;SDS011;4639;48.862;9.188;2022-08-01T02:09:33;2.30;;;2.10;;
9208;SDS011;4639;48.862;9.188;2022-08-01T02:12:02;3.15;;;2.55;;
9208;SDS011;4639;48.862;9.188;2022-08-01T02:14:29;5.30;;;2.30;;
9208;SDS011;4639;48.862;9.188;2022-08-01T02:17:00;2.33;;;2.08;;
9208;SDS011;4639;48.862;9.188;2022-08-01T02:19:28;3.60;;;2.10;;
9208;SDS011;4639;48.862;9.188;2022-08-01T02:22:02;4.43;;;2.20;;
9208;SDS011;4639;48.862;9.188;2022-08-01T02:24:44;2.47;;;2.28;;
9208;SDS011;4639;48.862;9.188;2022-08-01T02:27:15;2.97;;;2.10;;
9208;SDS011;4639;48.862;9.188;2022-08-01T02:29:49;4.07;;;2.33;;
9208;SDS011;4639;48.862;9.188;2022-08-01T02:32:30;2.30;;;2.10;;
9208;SDS011;4639;48.862;9.188;2022-08-01T02:35:01;2.75;;;2.22;;
9208;SDS011;4639;48.862;9.188;2022-08-01T02:37:28;3.92;;;2.40;;
9208;SDS011;4639;48.862;9.188;2022-08-01T02:39:58;2.72;;;2.53;;
9208;SDS011;4639;48.862;9.188;2022-08-01T02:42:24;2.92;;;2.10;;
9208;SDS011;4639;48.862;9.188;2022-08-01T02:44:52;2.53;;;2.22;;
9208;SDS011;4639;48.862;9.188;2022-08-01T02:47:19;2.90;;;2.35;;
9208;SDS011;4639;48.862;9.188;2022-08-01T02:49:48;3.95;;;2.50;;
9208;SDS011;4639;48.862;9.188;2022-08-01T02:52:15;3.90;;;2.38;;
9208;SDS011;4639;48.862;9.188;2022-08-01T02:54:46;2.92;;;2.42;;
9208;SDS011;4639;48.862;9.188;2022-08-01T02:57:14;2.75;;;2.30;;
9208;SDS011;4639;48.862;9.188;2022-08-01T02:59:42;3.30;;;2.42;;
9208;SDS011;4639;48.862;9.188;2022-08-01T03:02:09;2.53;;;2.33;;
9208;SDS011;4639;48.862;9.188;2022-08-01T03:04:36;3.75;;;2.38;;
9208;SDS011;4639;48.862;9.188;2022-08-01T03:07:05;3.03;;;2.20;;
9208;SDS011;4639;48.862;9.188;2022-08-01T03:09:34;3.42;;;2.40;;
9208;SDS011;4639;48.862;9.188;2022-08-01T03:12:03;3.15;;;2.55;;
9208;SDS011;4639;48.862;9.188;2022-08-01T03:14:31;4.15;;;2.60;;
9208;SDS011;4639;48.862;9.188;2022-08-01T03:17:00;3.75;;;2.72;;
9208;SDS011;4639;48.862;9.188;2022-08-01T03:19:26;3.72;;;2.10;;
9208;SDS011;4639;48.862;9.188;2022-08-01T03:21:55;5.07;;;2.50;;
9208;SDS011;4639;48.862;9.188;2022-08-01T03:24:23;2.47;;;2.28;;
9208;SDS011;4639;48.862;9.188;2022-08-01T03:26:50;5.57;;;2.75;;
9208;SDS011;4639;48.862;9.188;2022-08-01T03:29:19;2.33;;;2.03;;
9208;SDS011;4639;48.862;9.188;2022-08-01T03:31:47;2.67;;;2.00;;
9208;SDS011;4639;48.862;9.188;2022-08-01T03:34:14;3.97;;;2.40;;
9208;SDS011;4639;48.862;9.188;2022-08-01T03:37:02;2.40;;;2.20;;
9208;SDS011;4639;48.862;9.188;2022-08-01T03:39:47;3.95;;;2.13;;
9208;SDS011;4639;48.862;9.188;2022-08-01T03:42:18;2.35;;;2.15;;
9208;SDS011;4639;48.862;9.188;2022-08-01T03:44:57;3.05;;;2.10;;
9208;SDS011;4639;48.862;9.188;2022-08-01T03:47:29;2.65;;;2.00;;
9208;SDS011;4639;48.862;9.188;2022-08-01T03:49:57;4.03;;;2.10;;
9208;SDS011;4639;48.862;9.188;2022-08-01T03:52:24;2.47;;;2.05;;
9208;SDS011;4639;48.862;9.188;2022-08-01T03:54:52;3.97;;;2.30;;
9208;SDS011;4639;48.862;9.188;2022-08-01T03:57:21;3.75;;;2.55;;
9208;SDS011;4639;48.862;9.188;2022-08-01T03:59:48;3.42;;;1.98;;
9208;SDS011;4639;48.862;9.188;2022-08-01T04:02:14;2.50;;;2.30;;
9208;SDS011;4639;48.862;9.188;2022-08-01T04:04:41;3.13;;;2.30;;
9208;SDS011;4639;48.862;9.188;2022-08-01T04:09:55;3.17;;;2.25;;
9208;SDS011;4639;48.862;9.188;2022-08-01T04:12:21;2.60;;;2.20;;
9208;SDS011;4639;48.862;9.188;2022-08-01T04:14:47;4.00;;;2.25;;
9208;SDS011;4639;48.862;9.188;2022-08-01T04:17:14;4.32;;;2.05;;
9208;SDS011;4639;48.862;9.188;2022-08-01T04:19:42;3.28;;;2.20;;
9208;SDS011;4639;48.862;9.188;2022-08-01T04:22:10;3.42;;;2.30;;
9208;SDS011;4639;48.862;9.188;2022-08-01T04:24:37;2.70;;;1.92;;
9208;SDS011;4639;48.862;9.188;2022-08-01T04:27:08;2.78;;;2.40;;
9208;SDS011;4639;48.862;9.188;2022-08-01T04:29:38;4.55;;;2.03;;
9208;SDS011;4639;48.862;9.188;2022-08-01T04:32:06;3.33;;;2.50;;
9208;SDS011;4639;48.862;9.188;2022-08-01T04:34:34;3.63;;;2.25;;
9208;SDS011;4639;48.862;9.188;2022-08-01T04:37:02;5.95;;;2.30;;
9208;SDS011;4639;48.862;9.188;2022-08-01T04:39:30;3.15;;;1.98;;
9208;SDS011;4639;48.862;9.188;2022-08-01T04:41:59;2.22;;;2.03;;
9208;SDS011;4639;48.862;9.188;2022-08-01T04:44:28;2.38;;;2.00;;
9208;SDS011;4639;48.862;9.188;2022-08-01T04:46:57;2.28;;;1.98;;
9208;SDS011;4639;48.862;9.188;2022-08-01T04:49:24;3.78;;;2.03;;
9208;SDS011;4639;48.862;9.188;2022-08-01T04:51:53;1.95;;;1.80;;
9208;SDS011;4639;48.862;9.188;2022-08-01T04:54:23;2.17;;;1.98;;
9208;SDS011;4639;48.862;9.188;2022-08-01T04:56:49;2.70;;;2.17;;
9208;SDS011;4639;48.862;9.188;2022-08-01T04:59:15;3.00;;;1.88;;
9208;SDS011;4639;48.862;9.188;2022-08-01T05:02:00;2.53;;;2.10;;
9208;SDS011;4639;48.862;9.188;2022-08-01T05:04:25;3.55;;;2.10;;
9208;SDS011;4639;48.862;9.188;2022-08-01T05:06:51;4.40;;;2.08;;
9208;SDS011;4639;48.862;9.188;2022-08-01T05:09:16;2.97;;;1.90;;
9208;SDS011;4639;48.862;9.188;2022-08-01T05:11:42;2.80;;;2.00;;
9208;SDS011;4639;48.862;9.188;2022-08-01T05:14:08;2.90;;;1.90;;
9208;SDS011;4639;48.862;9.188;2022-08-01T05:16:33;2.33;;;1.90;;
9208;SDS011;4639;48.862;9.188;2022-08-01T05:18:59;1.80;;;1.70;;
9208;SDS011;4639;48.862;9.188;2022-08-01T05:21:24;2.60;;;2.00;;
9208;SDS011;4639;48.862;9.188;2022-08-01T05:23:50;3.33;;;1.90;;
9208;SDS011;4639;48.862;9.188;2022-08-01T05:26:15;2.13;;;1.70;;
9208;SDS011;4639;48.862;9.188;2022-08-01T05:28:41;2.72;;;2.13;;
9208;SDS011;4639;48.862;9.188;2022-08-01T05:31:07;2.20;;;1.80;;
9208;SDS011;4639;48.862;9.188;2022-08-01T05:33:32;1.50;;;1.40;;
9208;SDS011;4639;48.862;9.188;2022-08-01T05:35:58;3.05;;;1.80;;
9208;SDS011;4639;48.862;9.188;2022-08-01T05:38:24;3.42;;;1.92;;
9208;SDS011;4639;48.862;9.188;2022-08-01T05:40:49;2.00;;;1.70;;
9208;SDS011;4639;48.862;9.188;2022-08-01T05:43:15;2.15;;;1.95;;
9208;SDS011;4639;48.862;9.188;2022-08-01T05:45:41;2.75;;;1.92;;
9208;SDS011;4639;48.862;9.188;2022-08-01T05:48:06;2.50;;;1.75;;
9208;SDS011;4639;48.862;9.188;2022-08-01T05:50:32;2.42;;;1.90;;
9208;SDS011;4639;48.862;9.188;2022-08-01T05:52:58;1.77;;;1.67;;
9208;SDS011;4639;48.862;9.188;2022-08-01T05:55:24;2.33;;;2.03;;
9208;SDS011;4639;48.862;9.188;2022-08-01T05:57:49;2.78;;;1.85;;
9208;SDS011;4639;48.862;9.188;2022-08-01T06:00:15;5.10;;;1.98;;
9208;SDS011;4639;48.862;9.188;2022-08-01T06:02:44;3.15;;;1.90;;
9208;SDS011;4639;48.862;9.188;2022-08-01T06:05:10;2.60;;;1.70;;
9208;SDS011;4639;48.862;9.188;2022-08-01T06:07:36;3.67;;;1.70;;
9208;SDS011;4639;48.862;9.188;2022-08-01T06:10:03;2.65;;;1.80;;
9208;SDS011;4639;48.862;9.188;2022-08-01T06:12:32;2.50;;;1.80;;
9208;SDS011;4639;48.862;9.188;2022-08-01T06:14:58;1.90;;;1.65;;
9208;SDS011;4639;48.862;9.188;2022-08-01T06:17:23;2.17;;;1.92;;
9208;SDS011;4639;48.862;9.188;2022-08-01T06:19:49;3.45;;;1.52;;
9208;SDS011;4639;48.862;9.188;2022-08-01T06:22:15;3.05;;;1.67;;
9208;SDS011;4639;48.862;9.188;2022-08-01T06:24:40;1.83;;;1.55;;
9208;SDS011;4639;48.862;9.188;2022-08-01T06:27:06;1.85;;;1.50;;
9208;SDS011;4639;48.862;9.188;2022-08-01T06:29:31;2.13;;;1.70;;
9208;SDS011;4639;48.862;9.188;2022-08-01T06:31:57;1.67;;;1.58;;
9208;SDS011;4639;48.862;9.188;2022-08-01T06:34:23;2.45;;;1.52;;
9208;SDS011;4639;48.862;9.188;2022-08-01T06:36:49;5.95;;;1.60;;
9208;SDS011;4639;48.862;9.188;2022-08-01T06:39:14;2.92;;;1.77;;
9208;SDS011;4639;48.862;9.188;2022-08-01T06:41:40;1.70;;;1.52;;
9208;SDS011;4639;48.862;9.188;2022-08-01T06:44:11;7.45;;;1.67;;
9208;SDS011;4639;48.862;9.188;2022-08-01T06:46:40;1.60;;;1.40;;
9208;SDS011;4639;48.862;9.188;2022-08-01T06:49:05;1.60;;;1.35;;
9208;SDS011;4639;48.862;9.188;2022-08-01T06:51:31;2.08;;;1.48;;
9208;SDS011;4639;48.862;9.188;2022-08-01T06:53:57;3.25;;;1.45;;
9208;SDS011;4639;48.862;9.188;2022-08-01T06:56:22;1.42;;;1.33;;
9208;SDS011;4639;48.862;9.188;2022-08-01T06:58:49;1.52;;;1.42;;
9208;SDS011;4639;48.862;9.188;2022-08-01T07:01:15;3.40;;;1.40;;
9208;SDS011;4639;48.862;9.188;2022-08-01T07:03:41;4.97;;;1.63;;
9208;SDS011;4639;48.862;9.188;2022-08-01T07:06:07;2.95;;;1.30;;
9208;SDS011;4639;48.862;9.188;2022-08-01T07:08:32;5.00;;;1.73;;
9208;SDS011;4639;48.862;9.188;2022-08-01T07:10:58;3.00;;;1.50;;
9208;SDS011;4639;48.862;9.188;2022-08-01T07:13:27;3.58;;;1.52;;
9208;SDS011;4639;48.862;9.188;2022-08-01T07:15:55;1.70;;;1.45;;
9208;SDS011;4639;48.862;9.188;2022-08-01T07:18:21;2.33;;;1.60;;
9208;SDS011;4639;48.862;9.188;2022-08-01T07:20:48;1.70;;;1.45;;
9208;SDS011;4639;48.862;9.188;2022-08-01T07:23:14;2.85;;;1.60;;
9208;SDS011;4639;48.862;9.188;2022-08-01T07:25:40;1.85;;;1.40;;
9208;SDS011;4639;48.862;9.188;2022-08-01T07:28:06;6.93;;;1.75;;
9208;SDS011;4639;48.862;9.188;2022-08-01T07:30:32;3.25;;;1.52;;
9208;SDS011;4639;48.862;9.188;2022-08-01T07:32:57;2.05;;;1.58;;
9208;SDS011;4639;48.862;9.188;2022-08-01T07:35:23;2.13;;;1.77;;
9208;SDS011;4639;48.862;9.188;2022-08-01T07:37:49;1.70;;;1.42;;
9208;SDS011;4639;48.862;9.188;2022-08-01T07:40:15;2.90;;;1.73;;
9208;SDS011;4639;48.862;9.188;2022-08-01T07:42:42;4.15;;;1.70;;
9208;SDS011;4639;48.862;9.188;2022-08-01T07:45:10;1.98;;;1.50;;
9208;SDS011;4639;48.862;9.188;2022-08-01T07:47:36;3.22;;;1.33;;
9208;SDS011;4639;48.862;9.188;2022-08-01T07:50:02;4.95;;;1.60;;
9208;SDS011;4639;48.862;9.188;2022-08-01T07:52:29;3.88;;;1.33;;
9208;SDS011;4639;48.862;9.188;2022-08-01T07:54:55;4.15;;;1.92;;
9208;SDS011;4639;48.862;9.188;2022-08-01T07:57:22;5.20;;;1.80;;
9208;SDS011;4639;48.862;9.188;2022-08-01T07:59:49;3.28;;;1.65;;
9208;SDS011;4639;48.862;9.188;2022-08-01T08:02:14;4.32;;;1.60;;
9208;SDS011;4639;48.862;9.188;2022-08-01T08:04:40;2.47;;;1.77;;
9208;SDS011;4639;48.862;9.188;2022-08-01T08:07:06;3.50;;;1.55;;
9208;SDS011;4639;48.862;9.188;2022-08-01T08:09:31;5.75;;;1.73;;
9208;SDS011;4639;48.862;9.188;2022-08-01T08:11:57;3.13;;;1.60;;
9208;SDS011;4639;48.862;9.188;2022-08-01T08:14:23;2.15;;;1.55;;
9208;SDS011;4639;48.862;9.188;2022-08-01T08:16:49;4.93;;;1.70;;
9208;SDS011;4639;48.862;9.188;2022-08-01T08:19:15;3.55;;;1.75;;
9208;SDS011;4639;48.862;9.188;2022-08-01T08:21:41;2.65;;;1.67;;
9208;SDS011;4639;48.862;9.188;2022-08-01T08:24:07;5.80;;;1.80;;
9208;SDS011;4639;48.862;9.188;2022-08-01T08:26:46;3.08;;;1.30;;
9208;SDS011;4639;48.862;9.188;2022-08-01T08:29:13;3.10;;;1.40;;
9208;SDS011;4639;48.862;9.188;2022-08-01T08:31:39;3.38;;;1.45;;
9208;SDS011;4639;48.862;9.188;2022-08-01T08:34:05;2.17;;;1.40;;
9208;SDS011;4639;48.862;9.188;2022-08-01T08:36:30;4.13;;;1.70;;
9208;SDS011;4639;48.862;9.188;2022-08-01T08:38:56;3.58;;;1.90;;
9208;SDS011;4639;48.862;9.188;2022-08-01T08:41:22;4.25;;;1.73;;
9208;SDS011;4639;48.862;9.188;2022-08-01T08:43:48;6.72;;;2.00;;
9208;SDS011;4639;48.862;9.188;2022-08-01T08:46:14;1.50;;;1.40;;
9208;SDS011;4639;48.862;9.188;2022-08-01T08:48:41;5.53;;;1.70;;
9208;SDS011;4639;48.862;9.188;2022-08-01T08:51:07;6.07;;;2.05;;
9208;SDS011;4639;48.862;9.188;2022-08-01T08:53:34;1.92;;;1.50;;
9208;SDS011;4639;48.862;9.188;2022-08-01T08:56:00;12.25;;;1.92;;
9208;SDS011;4639;48.862;9.188;2022-08-01T08:58:27;3.33;;;1.77;;
9208;SDS011;4639;48.862;9.188;2022-08-01T09:00:53;7.30;;;1.83;;
9208;SDS011;4639;48.862;9.188;2022-08-01T09:03:19;2.75;;;1.60;;
9208;SDS011;4639;48.862;9.188;2022-08-01T09:05:45;5.53;;;1.90;;
9208;SDS011;4639;48.862;9.188;2022-08-01T09:08:11;5.78;;;1.98;;
9208;SDS011;4639;48.862;9.188;2022-08-01T09:10:37;5.85;;;2.08;;
9208;SDS011;4639;48.862;9.188;2022-08-01T09:18:32;6.80;;;2.28;;
9208;SDS011;4639;48.862;9.188;2022-08-01T09:21:15;4.28;;;2.30;;
9208;SDS011;4639;48.862;9.188;2022-08-01T09:23:46;4.80;;;2.70;;
9208;SDS011;4639;48.862;9.188;2022-08-01T09:26:17;3.22;;;2.63;;
9208;SDS011;4639;48.862;9.188;2022-08-01T09:28:45;4.65;;;2.47;;
9208;SDS011;4639;48.862;9.188;2022-08-01T09:31:13;4.72;;;2.85;;
9208;SDS011;4639;48.862;9.188;2022-08-01T09:33:48;6.45;;;3.40;;
9208;SDS011;4639;48.862;9.188;2022-08-01T09:36:27;6.07;;;3.40;;
9208;SDS011;4639;48.862;9.188;2022-08-01T09:39:13;4.40;;;3.05;;
9208;SDS011;4639;48.862;9.188;2022-08-01T09:41:39;5.68;;;3.08;;
9208;SDS011;4639;48.862;9.188;2022-08-01T09:44:05;6.13;;;3.40;;
9208;SDS011;4639;48.862;9.188;2022-08-01T09:46:31;4.05;;;3.30;;
9208;SDS011;4639;48.862;9.188;2022-08-01T09:49:00;4.13;;;2.55;;
9208;SDS011;4639;48.862;9.188;2022-08-01T09:51:32;10.10;;;2.72;;
9208;SDS011;4639;48.862;9.188;2022-08-01T09:53:59;5.38;;;3.13;;
9208;SDS011;4639;48.862;9.188;2022-08-01T09:56:26;2.83;;;2.42;;
9208;SDS011;4639;48.862;9.188;2022-08-01T09:59:00;3.03;;;2.45;;
9208;SDS011;4639;48.862;9.188;2022-08-01T10:01:26;2.97;;;2.30;;
9208;SDS011;4639;48.862;9.188;2022-08-01T10:06:38;4.22;;;2.67;;
9208;SDS011;4639;48.862;9.188;2022-08-01T10:09:07;2.30;;;2.00;;
9208;SDS011;4639;48.862;9.188;2022-08-01T10:11:33;4.25;;;2.45;;
9208;SDS011;4639;48.862;9.188;2022-08-01T10:14:03;4.25;;;2.58;;
9208;SDS011;4639;48.862;9.188;2022-08-01T10:16:30;2.78;;;2.20;;
9208;SDS011;4639;48.862;9.188;2022-08-01T10:18:56;2.22;;;2.03;;
9208;SDS011;4639;48.862;9.188;2022-08-01T10:21:23;1.95;;;1.80;;
9208;SDS011;4639;48.862;9.188;2022-08-01T10:23:51;2.53;;;2.03;;
9208;SDS011;4639;48.862;9.188;2022-08-01T10:26:20;3.70;;;2.10;;
9208;SDS011;4639;48.862;9.188;2022-08-01T10:28:49;2.67;;;1.90;;
9208;SDS011;4639;48.862;9.188;2022-08-01T10:31:16;2.00;;;1.70;;
9208;SDS011;4639;48.862;9.188;2022-08-01T10:33:42;2.88;;;1.70;;
9208;SDS011;4639;48.862;9.188;2022-08-01T10:36:09;2.15;;;1.70;;
9208;SDS011;4639;48.862;9.188;2022-08-01T10:38:35;3.20;;;1.88;;
9208;SDS011;4639;48.862;9.188;2022-08-01T10:41:02;2.28;;;1.50;;
9208;SDS011;4639;48.862;9.188;2022-08-01T10:43:29;1.60;;;1.50;;
9208;SDS011;4639;48.862;9.188;2022-08-01T10:45:54;2.22;;;1.90;;
9208;SDS011;4639;48.862;9.188;2022-08-01T10:48:23;2.38;;;1.80;;
9208;SDS011;4639;48.862;9.188;2022-08-01T10:50:55;4.05;;;1.67;;
9208;SDS011;4639;48.862;9.188;2022-08-01T10:53:25;3.05;;;1.98;;
9208;SDS011;4639;48.862;9.188;2022-08-01T10:56:02;2.40;;;2.13;;
9208;SDS011;4639;48.862;9.188;2022-08-01T10:58:35;1.92;;;1.80;;
9208;SDS011;4639;48.862;9.188;2022-08-01T11:01:22;3.25;;;1.90;;
9208;SDS011;4639;48.862;9.188;2022-08-01T11:06:49;3.05;;;1.85;;
9208;SDS011;4639;48.862;9.188;2022-08-01T11:12:02;4.45;;;1.92;;
9208;SDS011;4639;48.862;9.188;2022-08-01T11:14:34;1.80;;;1.70;;
9208;SDS011;4639;48.862;9.188;2022-08-01T11:17:38;2.22;;;1.83;;
9208;SDS011;4639;48.862;9.188;2022-08-01T11:20:15;3.17;;;1.70;;
9208;SDS011;4639;48.862;9.188;2022-08-01T11:30:42;2.63;;;1.90;;
9208;SDS011;4639;48.862;9.188;2022-08-01T11:33:09;1.83;;;1.60;;
9208;SDS011;4639;48.862;9.188;2022-08-01T11:35:35;3.30;;;1.90;;
9208;SDS011;4639;48.862;9.188;2022-08-01T11:41:11;3.28;;;1.65;;
9208;SDS011;4639;48.862;9.188;2022-08-01T11:43:57;2.45;;;1.83;;
9208;SDS011;4639;48.862;9.188;2022-08-01T11:49:24;2.15;;;1.63;;
9208;SDS011;4639;48.862;9.188;2022-08-01T11:54:52;3.97;;;2.10;;
9208;SDS011;4639;48.862;9.188;2022-08-01T11:57:20;2.97;;;1.80;;
9208;SDS011;4639;48.862;9.188;2022-08-01T11:59:53;3.67;;;1.60;;
9208;SDS011;4639;48.862;9.188;2022-08-01T12:02:23;1.73;;;1.60;;
9208;SDS011;4639;48.862;9.188;2022-08-01T12:04:58;2.63;;;1.73;;
9208;SDS011;4639;48.862;9.188;2022-08-01T12:07:29;2.65;;;1.60;;
9208;SDS011;4639;48.862;9.188;2022-08-01T12:10:07;3.33;;;1.58;;
9208;SDS011;4639;48.862;9.188;2022-08-01T12:12:34;1.70;;;1.60;;
9208;SDS011;4639;48.862;9.188;2022-08-01T12:15:05;6.60;;;2.00;;
9208;SDS011;4639;48.862;9.188;2022-08-01T12:17:40;3.70;;;1.85;;
9208;SDS011;4639;48.862;9.188;2022-08-01T12:20:11;1.70;;;1.60;;
9208;SDS011;4639;48.862;9.188;2022-08-01T12:22:40;7.05;;;1.90;;
9208;SDS011;4639;48.862;9.188;2022-08-01T12:27:33;2.40;;;1.52;;
9208;SDS011;4639;48.862;9.188;2022-08-01T12:30:00;1.90;;;1.50;;
9208;SDS011;4639;48.862;9.188;2022-08-01T12:32:27;2.20;;;1.70;;
9208;SDS011;4639;48.862;9.188;2022-08-01T12:35:00;4.72;;;1.90;;
9208;SDS011;4639;48.862;9.188;2022-08-01T12:37:43;2.60;;;1.65;;
9208;SDS011;4639;48.862;9.188;2022-08-01T12:40:14;2.20;;;1.90;;
9208;SDS011;4639;48.862;9.188;2022-08-01T12:42:51;4.05;;;1.98;;
9208;SDS011;4639;48.862;9.188;2022-08-01T12:45:18;3.75;;;1.75;;
9208;SDS011;4639;48.862;9.188;2022-08-01T12:47:52;3.03;;;1.60;;
9208;SDS011;4639;48.862;9.188;2022-08-01T12:50:19;1.67;;;1.50;;
9208;SDS011;4639;48.862;9.188;2022-08-01T12:52:47;1.80;;;1.50;;
9208;SDS011;4639;48.862;9.188;2022-08-01T12:55:18;1.60;;;1.50;;
9208;SDS011;4639;48.862;9.188;2022-08-01T12:58:03;1.88;;;1.50;;
9208;SDS011;4639;48.862;9.188;2022-08-01T13:00:33;2.05;;;1.70;;
9208;SDS011;4639;48.862;9.188;2022-08-01T13:03:07;2.97;;;1.70;;
9208;SDS011;4639;48.862;9.188;2022-08-01T13:05:44;1.60;;;1.50;;
9208;SDS011;4639;48.862;9.188;2022-08-01T13:08:11;1.75;;;1.60;;
9208;SDS011;4639;48.862;9.188;2022-08-01T13:10:41;2.25;;;1.70;;
9208;SDS011;4639;48.862;9.188;2022-08-01T13:13:07;2.35;;;1.70;;
9208;SDS011;4639;48.862;9.188;2022-08-01T13:15:35;6.97;;;1.80;;
9208;SDS011;4639;48.862;9.188;2022-08-01T13:21:09;2.45;;;1.52;;
9208;SDS011;4639;48.862;9.188;2022-08-01T13:23:35;2.13;;;1.80;;
9208;SDS011;4639;48.862;9.188;2022-08-01T13:26:02;3.40;;;1.58;;
9208;SDS011;4639;48.862;9.188;2022-08-01T13:28:28;5.75;;;1.95;;
9208;SDS011;4639;48.862;9.188;2022-08-01T13:30:57;2.95;;;1.65;;
9208;SDS011;4639;48.862;9.188;2022-08-01T13:33:25;3.90;;;1.80;;
9208;SDS011;4639;48.862;9.188;2022-08-01T13:36:04;4.30;;;1.60;;
9208;SDS011;4639;48.862;9.188;2022-08-01T13:38:30;2.35;;;1.73;;
9208;SDS011;4639;48.862;9.188;2022-08-01T13:41:14;1.77;;;1.50;;
9208;SDS011;4639;48.862;9.188;2022-08-01T13:43:40;2.70;;;1.63;;
9208;SDS011;4639;48.862;9.188;2022-08-01T13:46:06;3.88;;;1.50;;
9208;SDS011;4639;48.862;9.188;2022-08-01T13:48:31;1.70;;;1.55;;
9208;SDS011;4639;48.862;9.188;2022-08-01T13:50:57;1.83;;;1.50;;
9208;SDS011;4639;48.862;9.188;2022-08-01T13:53:23;5.25;;;2.63;;
9208;SDS011;4639;48.862;9.188;2022-08-01T13:55:49;4.63;;;3.55;;
9208;SDS011;4639;48.862;9.188;2022-08-01T13:58:15;3.22;;;2.33;;
9208;SDS011;4639;48.862;9.188;2022-08-01T14:00:41;2.75;;;1.60;;
9208;SDS011;4639;48.862;9.188;2022-08-01T14:03:07;2.35;;;1.55;;
9208;SDS011;4639;48.862;9.188;2022-08-01T14:05:34;4.07;;;1.60;;
9208;SDS011;4639;48.862;9.188;2022-08-01T14:08:00;3.28;;;1.52;;
9208;SDS011;4639;48.862;9.188;2022-08-01T14:10:26;2.20;;;1.40;;
9208;SDS011;4639;48.862;9.188;2022-08-01T14:12:52;2.63;;;1.80;;
9208;SDS011;4639;48.862;9.188;2022-08-01T14:15:17;3.15;;;1.60;;
9208;SDS011;4639;48.862;9.188;2022-08-01T14:17:43;2.00;;;1.70;;
9208;SDS011;4639;48.862;9.188;2022-08-01T14:20:09;3.35;;;1.75;;
9208;SDS011;4639;48.862;9.188;2022-08-01T14:22:35;4.45;;;1.75;;
9208;SDS011;4639;48.862;9.188;2022-08-01T14:25:01;4.10;;;1.60;;
9208;SDS011;4639;48.862;9.188;2022-08-01T14:27:27;1.60;;;1.50;;
9208;SDS011;4639;48.862;9.188;2022-08-01T14:29:55;3.20;;;1.65;;
9208;SDS011;4639;48.862;9.188;2022-08-01T14:32:21;2.50;;;1.77;;
9208;SDS011;4639;48.862;9.188;2022-08-01T14:34:47;3.20;;;1.70;;
9208;SDS011;4639;48.862;9.188;2022-08-01T14:37:13;1.65;;;1.55;;
9208;SDS011;4639;48.862;9.188;2022-08-01T14:39:38;4.93;;;1.92;;
9208;SDS011;4639;48.862;9.188;2022-08-01T14:42:04;2.50;;;1.80;;
9208;SDS011;4639;48.862;9.188;2022-08-01T14:44:30;2.17;;;1.73;;
9208;SDS011;4639;48.862;9.188;2022-08-01T14:46:55;4.95;;;1.90;;
9208;SDS011;4639;48.862;9.188;2022-08-01T14:49:21;1.60;;;1.50;;
9208;SDS011;4639;48.862;9.188;2022-08-01T14:51:46;2.22;;;1.70;;
9208;SDS011;4639;48.862;9.188;2022-08-01T14:54:12;1.60;;;1.50;;
9208;SDS011;4639;48.862;9.188;2022-08-01T14:56:38;2.55;;;1.63;;
9208;SDS011;4639;48.862;9.188;2022-08-01T14:59:03;1.70;;;1.40;;
9208;SDS011;4639;48.862;9.188;2022-08-01T15:01:29;3.50;;;1.80;;
9208;SDS011;4639;48.862;9.188;2022-08-01T15:03:55;2.08;;;1.70;;
9208;SDS011;4639;48.862;9.188;2022-08-01T15:06:21;4.07;;;1.60;;
9208;SDS011;4639;48.862;9.188;2022-08-01T15:08:46;1.85;;;1.50;;
9208;SDS011;4639;48.862;9.188;2022-08-01T15:11:12;1.85;;;1.63;;
9208;SDS011;4639;48.862;9.188;2022-08-01T15:13:38;3.20;;;1.80;;
9208;SDS011;4639;48.862;9.188;2022-08-01T15:16:03;1.65;;;1.55;;
9208;SDS011;4639;48.862;9.188;2022-08-01T15:18:29;3.70;;;1.80;;
9208;SDS011;4639;48.862;9.188;2022-08-01T15:20:55;3.20;;;1.65;;
9208;SDS011;4639;48.862;9.188;2022-08-01T15:23:22;2.25;;;1.67;;
9208;SDS011;4639;48.862;9.188;2022-08-01T15:25:48;2.55;;;1.70;;
9208;SDS011;4639;48.862;9.188;2022-08-01T15:28:13;2.70;;;1.38;;
9208;SDS011;4639;48.862;9.188;2022-08-01T15:30:39;3.15;;;1.50;;
9208;SDS011;4639;48.862;9.188;2022-08-01T15:33:05;2.25;;;1.52;;
9208;SDS011;4639;48.862;9.188;2022-08-01T15:35:31;2.60;;;1.60;;
9208;SDS011;4639;48.862;9.188;2022-08-01T15:37:57;1.75;;;1.40;;
9208;SDS011;4639;48.862;9.188;2022-08-01T15:40:22;3.08;;;1.50;;
9208;SDS011;4639;48.862;9.188;2022-08-01T15:42:48;3.53;;;1.70;;
9208;SDS011;4639;48.862;9.188;2022-08-01T15:45:14;4.15;;;1.60;;
9208;SDS011;4639;48.862;9.188;2022-08-01T15:47:43;2.08;;;1.55;;
9208;SDS011;4639;48.862;9.188;2022-08-01T15:50:08;1.60;;;1.38;;
9208;SDS011;4639;48.862;9.188;2022-08-01T15:52:34;1.45;;;1.35;;
9208;SDS011;4639;48.862;9.188;2022-08-01T15:55:00;2.50;;;1.60;;
9208;SDS011;4639;48.862;9.188;2022-08-01T15:57:26;3.85;;;1.58;;
9208;SDS011;4639;48.862;9.188;2022-08-01T15:59:52;3.13;;;1.48;;
9208;SDS011;4639;48.862;9.188;2022-08-01T16:02:17;3.42;;;1.40;;
9208;SDS011;4639;48.862;9.188;2022-08-01T16:04:43;3.63;;;1.55;;
9208;SDS011;4639;48.862;9.188;2022-08-01T16:07:09;1.30;;;1.20;;
9208;SDS011;4639;48.862;9.188;2022-08-01T16:09:35;3.35;;;1.40;;
9208;SDS011;4639;48.862;9.188;2022-08-01T16:12:01;2.28;;;1.15;;